Time;durP1;ratioP1;P1;durP2;ratioP2;P2;SDS_P1;SDS_P2;PMS_P1;PMS_P2;Temp;Humidity;BMP_temperature;BMP_pressure;BME280_temperature;BME280_humidity;BME280_pressure;Samples;Min_cycle;Max_cycle;Signal;HPM_P1;HPM_P2
2023/04/03 00:00:38;;;;;;;0.70;0.50;;;4.10;99.90;;;;;;5076075;28;20470;-83
2023/04/03 00:03:06;;;;;;;0.50;0.50;;;4.20;99.90;;;;;;5076138;28;20502;-82
2023/04/03 00:05:33;;;;;;;1.10;0.40;;;4.10;99.90;;;;;;5075832;28;20452;-83
2023/04/03 00:08:01;;;;;;;0.87;0.43;;;4.10;99.90;;;;;;5075737;28;20941;-83
2023/04/03 00:10:28;;;;;;;0.43;0.30;;;4.10;99.90;;;;;;5075623;28;21055;-83
2023/04/03 00:12:55;;;;;;;0.60;0.60;;;4.10;99.90;;;;;;5075953;28;20601;-83
2023/04/03 00:15:22;;;;;;;0.40;0.40;;;4.10;99.90;;;;;;5076238;28;20921;-83
2023/04/03 00:17:48;;;;;;;0.30;0.30;;;4.10;99.90;;;;;;5075801;28;20449;-83
2023/04/03 00:20:16;;;;;;;1.83;0.63;;;4.10;99.90;;;;;;5075031;28;20489;-83
2023/04/03 00:22:43;;;;;;;1.37;1.00;;;4.10;99.90;;;;;;5075493;28;20449;-82
2023/04/03 00:25:10;;;;;;;2.30;0.60;;;4.10;99.90;;;;;;5075757;28;20438;-83
2023/04/03 00:27:38;;;;;;;2.67;1.03;;;4.10;99.90;;;;;;5075392;28;20933;-83
2023/04/03 00:30:06;;;;;;;0.30;0.30;;;4.00;99.90;;;;;;5075602;28;20461;-83
2023/04/03 00:32:33;;;;;;;0.30;0.30;;;4.00;99.90;;;;;;5075591;28;20442;-83
2023/04/03 00:35:00;;;;;;;0.77;0.60;;;4.10;99.90;;;;;;5075299;28;20449;-83
2023/04/03 00:37:28;;;;;;;2.03;0.40;;;4.00;99.90;;;;;;5077605;28;20949;-82
2023/04/03 00:39:54;;;;;;;0.60;0.60;;;4.00;99.90;;;;;;5075343;28;20489;-83
2023/04/03 00:42:21;;;;;;;0.60;0.60;;;4.00;99.90;;;;;;5075338;28;20450;-83
2023/04/03 00:45:25;;;;;;;0.43;0.43;;;4.00;99.90;;;;;;5075065;28;20514;-83
2023/04/03 00:47:52;;;;;;;0.30;0.30;;;4.00;99.90;;;;;;5075372;28;20436;-83
2023/04/03 00:50:19;;;;;;;2.63;0.57;;;4.00;99.90;;;;;;5075179;28;20833;-83
2023/04/03 00:52:48;;;;;;;0.40;0.37;;;3.90;99.90;;;;;;5075225;28;20449;-83
2023/04/03 00:55:17;;;;;;;1.27;0.80;;;3.80;99.90;;;;;;5075093;28;20446;-83
2023/04/03 00:57:44;;;;;;;0.90;0.30;;;3.80;99.90;;;;;;5075117;28;20477;-83
2023/04/03 01:00:14;;;;;;;0.60;0.40;;;3.80;99.90;;;;;;5074587;28;21055;-83
2023/04/03 01:02:41;;;;;;;0.93;0.50;;;3.70;99.90;;;;;;5075010;28;20450;-82
2023/04/03 01:05:08;;;;;;;0.67;0.50;;;3.70;99.90;;;;;;5074967;28;20473;-83
2023/04/03 01:07:36;;;;;;;0.40;0.40;;;3.60;99.90;;;;;;5074650;28;20989;-82
2023/04/03 01:10:09;;;;;;;0.40;0.40;;;3.60;99.90;;;;;;5074463;28;20476;-83
2023/04/03 01:12:37;;;;;;;0.30;0.30;;;3.60;99.90;;;;;;5074909;28;20425;-82
2023/04/03 01:15:06;;;;;;;0.30;0.30;;;3.60;99.90;;;;;;5075281;28;20820;-83
2023/04/03 01:17:35;;;;;;;0.50;0.40;;;3.60;99.90;;;;;;5074735;28;20475;-83
2023/04/03 01:20:30;;;;;;;0.60;0.40;;;3.50;99.90;;;;;;5074560;28;20485;-83
2023/04/03 01:23:05;;;;;;;0.30;0.30;;;3.50;99.90;;;;;;5074274;28;20452;-83
2023/04/03 01:25:35;;;;;;;0.30;0.30;;;3.50;99.90;;;;;;5074668;28;20433;-83
2023/04/03 01:28:01;;;;;;;0.50;0.50;;;3.50;99.90;;;;;;5074509;28;20454;-82
2023/04/03 01:30:32;;;;;;;0.30;0.30;;;3.50;99.90;;;;;;5073580;28;20461;-83
2023/04/03 01:33:00;;;;;;;0.60;0.50;;;3.60;99.90;;;;;;5074097;28;20437;-83
2023/04/03 01:35:27;;;;;;;0.30;0.30;;;3.60;99.90;;;;;;5074358;28;20547;-82
2023/04/03 01:37:54;;;;;;;0.40;0.40;;;3.50;99.90;;;;;;5074027;28;20819;-83
2023/04/03 01:40:20;;;;;;;0.30;0.30;;;3.40;99.90;;;;;;5073824;28;21058;-83
2023/04/03 01:42:47;;;;;;;0.50;0.50;;;3.40;99.90;;;;;;5074167;28;20446;-83
2023/04/03 01:45:14;;;;;;;0.40;0.40;;;3.40;99.90;;;;;;5073945;28;20461;-82
2023/04/03 01:47:41;;;;;;;0.57;0.40;;;3.40;99.90;;;;;;5074197;28;20430;-83
2023/04/03 01:50:09;;;;;;;0.40;0.40;;;3.40;99.90;;;;;;5077929;28;20461;-82
2023/04/03 01:52:36;;;;;;;0.40;0.30;;;3.40;99.90;;;;;;5073737;28;20449;-79
2023/04/03 01:55:03;;;;;;;0.40;0.30;;;3.40;99.90;;;;;;5074561;28;20445;-78
2023/04/03 01:57:29;;;;;;;0.40;0.30;;;3.40;99.90;;;;;;5073644;28;20964;-79
2023/04/03 01:59:56;;;;;;;0.40;0.30;;;3.40;99.90;;;;;;5073791;28;20491;-79
2023/04/03 02:02:23;;;;;;;0.53;0.33;;;3.40;99.90;;;;;;5073615;28;20805;-78
2023/04/03 02:04:50;;;;;;;0.40;0.40;;;3.40;99.90;;;;;;5073537;28;20449;-79
2023/04/03 02:07:18;;;;;;;0.60;0.60;;;3.30;99.90;;;;;;5073466;28;20949;-79
2023/04/03 02:09:44;;;;;;;0.40;0.30;;;3.30;99.90;;;;;;5073618;28;20491;-78
2023/04/03 02:12:11;;;;;;;0.30;0.30;;;3.30;99.90;;;;;;5073719;28;20460;-78
2023/04/03 02:14:37;;;;;;;1.50;0.70;;;3.30;99.90;;;;;;5073678;28;20445;-79
2023/04/03 02:17:08;;;;;;;0.43;0.30;;;3.20;99.90;;;;;;5073329;28;20502;-79
2023/04/03 02:19:35;;;;;;;0.30;0.30;;;3.20;99.90;;;;;;5073504;28;20482;-79
2023/04/03 02:22:01;;;;;;;0.40;0.40;;;3.20;99.90;;;;;;5073559;28;20519;-78
2023/04/03 02:24:30;;;;;;;0.40;0.40;;;3.20;99.90;;;;;;5073545;28;20446;-79
2023/04/03 02:26:56;;;;;;;0.30;0.30;;;3.30;99.90;;;;;;5073502;28;20525;-79
2023/04/03 02:29:23;;;;;;;0.60;0.40;;;3.30;99.90;;;;;;5073422;28;20470;-79
2023/04/03 02:31:50;;;;;;;0.40;0.37;;;3.30;99.90;;;;;;5073442;28;20468;-79
2023/04/03 02:34:17;;;;;;;0.70;0.30;;;3.20;99.90;;;;;;5073422;28;20445;-78
2023/04/03 02:36:44;;;;;;;1.50;0.60;;;3.30;99.90;;;;;;5073412;28;20506;-79
2023/04/03 02:39:11;;;;;;;1.03;0.50;;;3.30;99.90;;;;;;5073189;28;20572;-79
2023/04/03 02:41:39;;;;;;;5.83;0.77;;;3.30;99.90;;;;;;5072862;28;20854;-78
2023/04/03 02:44:11;;;;;;;0.60;0.60;;;3.30;99.90;;;;;;5073328;28;20485;-79
2023/04/03 02:46:37;;;;;;;0.50;0.37;;;3.30;99.90;;;;;;5072885;28;20489;-79
2023/04/03 02:49:04;;;;;;;2.00;0.60;;;3.30;99.90;;;;;;5073222;28;20461;-78
2023/04/03 02:51:31;;;;;;;0.80;0.50;;;3.30;99.90;;;;;;5073275;28;20457;-79
2023/04/03 02:53:58;;;;;;;0.60;0.50;;;3.30;99.90;;;;;;5073246;28;20515;-79
2023/04/03 02:56:26;;;;;;;0.47;0.37;;;3.20;99.90;;;;;;5074029;28;20450;-79
2023/04/03 02:58:54;;;;;;;0.50;0.40;;;3.30;99.90;;;;;;5073155;28;20475;-78
2023/04/03 03:01:21;;;;;;;0.30;0.30;;;3.30;99.90;;;;;;5073110;28;20576;-79
2023/04/03 03:03:48;;;;;;;0.50;0.50;;;3.30;99.90;;;;;;5073202;28;20449;-79
2023/04/03 03:06:16;;;;;;;0.30;0.30;;;3.30;99.90;;;;;;5073793;28;20453;-79
2023/04/03 03:08:43;;;;;;;0.50;0.30;;;3.30;99.90;;;;;;5073043;28;20515;-79
2023/04/03 03:11:11;;;;;;;0.57;0.57;;;3.30;99.90;;;;;;5073036;28;20446;-79
2023/04/03 03:13:37;;;;;;;0.50;0.50;;;3.30;99.90;;;;;;5072751;28;20850;-79
2023/04/03 03:16:06;;;;;;;0.40;0.40;;;3.30;99.90;;;;;;5073064;28;20510;-78
2023/04/03 03:18:33;;;;;;;0.70;0.70;;;3.30;99.90;;;;;;5072985;28;20791;-78
2023/04/03 03:21:02;;;;;;;0.83;0.80;;;3.20;99.90;;;;;;5072515;28;20580;-79
2023/04/03 03:23:30;;;;;;;0.60;0.50;;;3.20;99.90;;;;;;5072928;28;20472;-78
2023/04/03 03:25:57;;;;;;;0.70;0.70;;;3.30;99.90;;;;;;5072605;28;20874;-78
2023/04/03 03:28:25;;;;;;;0.40;0.40;;;3.20;99.90;;;;;;5072934;28;20824;-79
2023/04/03 03:30:51;;;;;;;0.93;0.90;;;3.20;99.90;;;;;;5072528;28;20461;-78
2023/04/03 03:33:20;;;;;;;0.40;0.30;;;3.20;99.90;;;;;;5072868;28;20448;-78
2023/04/03 03:35:47;;;;;;;1.33;0.80;;;3.20;99.90;;;;;;5072840;28;20446;-79
2023/04/03 03:38:13;;;;;;;0.70;0.70;;;3.20;99.90;;;;;;5072827;28;20472;-78
2023/04/03 03:40:40;;;;;;;0.80;0.57;;;3.10;99.90;;;;;;5072672;28;20486;-79
2023/04/03 03:43:07;;;;;;;0.40;0.33;;;3.20;99.90;;;;;;5072780;28;20453;-78
2023/04/03 03:45:34;;;;;;;3.00;2.73;;;3.20;99.90;;;;;;5072547;28;20480;-79
2023/04/03 03:48:01;;;;;;;0.30;0.30;;;3.20;99.90;;;;;;5072769;28;20457;-78
2023/04/03 03:50:29;;;;;;;0.40;0.40;;;3.20;99.90;;;;;;5072342;28;20465;-79
2023/04/03 03:52:55;;;;;;;0.60;0.60;;;3.20;99.90;;;;;;5072684;28;20540;-79
2023/04/03 03:55:22;;;;;;;0.30;0.30;;;3.20;99.90;;;;;;5076150;28;20445;-78
2023/04/03 03:57:49;;;;;;;1.07;0.93;;;3.20;99.90;;;;;;5076258;28;20452;-79
2023/04/03 04:00:16;;;;;;;0.50;0.30;;;3.20;99.90;;;;;;5076077;28;20477;-78
2023/04/03 04:02:43;;;;;;;0.50;0.40;;;3.20;99.90;;;;;;5076145;28;20445;-79
2023/04/03 04:05:10;;;;;;;1.03;1.03;;;3.20;99.90;;;;;;5076141;28;20510;-78
2023/04/03 04:07:38;;;;;;;0.40;0.40;;;3.10;99.90;;;;;;5075771;28;20453;-78
2023/04/03 04:10:06;;;;;;;0.53;0.53;;;3.10;99.90;;;;;;5075978;28;20477;-78
2023/04/03 04:12:32;;;;;;;0.60;0.50;;;3.10;99.90;;;;;;5075981;28;20450;-79
2023/04/03 04:14:59;;;;;;;0.70;0.50;;;3.00;99.90;;;;;;5076008;28;20438;-79
2023/04/03 04:17:26;;;;;;;1.67;0.87;;;3.00;99.90;;;;;;5075959;28;20467;-78
2023/04/03 04:19:52;;;;;;;0.70;0.40;;;3.00;99.90;;;;;;5075751;28;20489;-79
2023/04/03 04:22:19;;;;;;;1.33;0.97;;;3.00;99.90;;;;;;5075815;28;20456;-78
2023/04/03 04:24:47;;;;;;;0.30;0.30;;;3.10;99.90;;;;;;5075731;28;20453;-78
2023/04/03 04:27:15;;;;;;;0.97;0.73;;;3.10;99.90;;;;;;5075721;28;20450;-78
2023/04/03 04:29:42;;;;;;;1.17;0.60;;;3.10;99.90;;;;;;5075611;28;20481;-78
2023/04/03 04:32:08;;;;;;;0.30;0.30;;;3.10;99.90;;;;;;5075643;28;20453;-78
2023/04/03 04:34:35;;;;;;;0.40;0.40;;;3.10;99.90;;;;;;5075624;28;20453;-78
2023/04/03 04:37:02;;;;;;;0.30;0.30;;;3.00;99.90;;;;;;5075559;28;20536;-78
2023/04/03 04:39:29;;;;;;;0.40;0.40;;;3.00;99.90;;;;;;5075342;28;20468;-78
2023/04/03 04:41:57;;;;;;;0.30;0.30;;;3.10;99.90;;;;;;5075113;28;20982;-78
2023/04/03 04:44:23;;;;;;;0.30;0.30;;;3.10;99.90;;;;;;5075431;28;20449;-79
2023/04/03 04:46:50;;;;;;;0.40;0.40;;;3.00;99.90;;;;;;5074875;28;20473;-78
2023/04/03 04:49:17;;;;;;;0.50;0.50;;;3.00;99.90;;;;;;5074959;28;20457;-79
2023/04/03 04:51:43;;;;;;;0.40;0.40;;;3.10;99.90;;;;;;5075337;28;20845;-79
2023/04/03 04:54:10;;;;;;;0.40;0.40;;;3.10;99.90;;;;;;5075672;28;20849;-78
2023/04/03 04:56:37;;;;;;;0.40;0.40;;;3.10;99.90;;;;;;5075260;28;20899;-79
2023/04/03 04:59:05;;;;;;;0.73;0.40;;;3.10;99.90;;;;;;5075080;28;20523;-79
2023/04/03 05:01:32;;;;;;;3.07;1.03;;;3.10;99.90;;;;;;5074769;28;21022;-85
2023/04/03 05:03:58;;;;;;;1.13;0.50;;;3.20;99.90;;;;;;5075226;28;20453;-85
2023/04/03 05:06:25;;;;;;;1.10;0.70;;;3.20;99.90;;;;;;5075100;28;20498;-85
2023/04/03 05:08:52;;;;;;;0.30;0.30;;;3.20;99.90;;;;;;5074700;28;21018;-85
2023/04/03 05:11:18;;;;;;;0.40;0.30;;;3.10;99.90;;;;;;5074768;28;20449;-85
2023/04/03 05:13:45;;;;;;;0.30;0.30;;;3.20;99.90;;;;;;5074730;28;20452;-84
2023/04/03 05:16:13;;;;;;;0.30;0.30;;;3.20;99.90;;;;;;5074513;28;20961;-84
2023/04/03 05:18:40;;;;;;;0.40;0.40;;;3.20;99.90;;;;;;5074742;28;20453;-85
2023/04/03 05:21:06;;;;;;;2.10;0.77;;;3.30;99.90;;;;;;5074786;28;20535;-85
2023/04/03 05:23:33;;;;;;;1.70;0.70;;;3.30;99.90;;;;;;5074717;28;20452;-85
2023/04/03 05:26:00;;;;;;;0.40;0.33;;;3.30;99.90;;;;;;5074774;28;20446;-85
2023/04/03 05:28:26;;;;;;;0.40;0.33;;;3.30;99.90;;;;;;5074673;28;20449;-85
2023/04/03 05:30:55;;;;;;;0.97;0.40;;;3.30;99.90;;;;;;5074518;28;20461;-85
2023/04/03 05:33:23;;;;;;;1.00;0.83;;;3.30;99.90;;;;;;5074150;28;20477;-85
2023/04/03 05:35:50;;;;;;;0.80;0.80;;;3.30;99.90;;;;;;5074542;28;20424;-85
2023/04/03 05:38:16;;;;;;;0.30;0.30;;;3.30;99.90;;;;;;5074519;28;20453;-85
2023/04/03 05:40:43;;;;;;;0.60;0.60;;;3.30;99.90;;;;;;5074250;28;20485;-85
2023/04/03 05:43:10;;;;;;;0.33;0.30;;;3.30;99.90;;;;;;5074340;28;20457;-85
2023/04/03 05:45:36;;;;;;;0.40;0.30;;;3.30;99.90;;;;;;5074028;28;20882;-88
2023/04/03 05:48:03;;;;;;;0.40;0.40;;;3.30;99.90;;;;;;5074387;28;20438;-85
2023/04/03 05:50:31;;;;;;;0.77;0.77;;;3.30;99.90;;;;;;5074189;28;20476;-85
2023/04/03 05:52:59;;;;;;;1.20;1.20;;;3.40;99.90;;;;;;5074228;28;20445;-85
2023/04/03 05:55:26;;;;;;;0.33;0.30;;;3.50;99.90;;;;;;5074286;28;20471;-85
2023/04/03 05:57:53;;;;;;;0.30;0.30;;;3.50;99.90;;;;;;5074141;28;20528;-85
2023/04/03 06:00:21;;;;;;;1.03;0.93;;;3.50;99.90;;;;;;5074025;28;20523;-85
2023/04/03 06:02:47;;;;;;;0.40;0.40;;;3.60;99.90;;;;;;5074087;28;20450;-85
2023/04/03 06:05:14;;;;;;;1.93;0.70;;;3.70;99.90;;;;;;5073994;28;20788;-85
2023/04/03 06:07:43;;;;;;;0.60;0.40;;;3.80;99.90;;;;;;5074441;28;20821;-86
2023/04/03 06:10:12;;;;;;;0.30;0.30;;;3.70;99.90;;;;;;5076304;28;20473;-85
2023/04/03 06:12:39;;;;;;;0.30;0.30;;;3.70;99.90;;;;;;5077507;28;20792;-85
2023/04/03 06:15:07;;;;;;;1.50;0.50;;;3.70;99.90;;;;;;5074237;28;20460;-85
2023/04/03 06:17:34;;;;;;;0.37;0.37;;;3.70;99.90;;;;;;5073560;28;20449;-86
2023/04/03 06:20:03;;;;;;;0.30;0.30;;;3.70;99.90;;;;;;5073764;28;20472;-86
2023/04/03 06:22:30;;;;;;;0.50;0.50;;;3.80;99.90;;;;;;5073885;28;20493;-86
2023/04/03 06:24:58;;;;;;;0.33;0.30;;;3.70;99.90;;;;;;5073883;28;20441;-86
2023/04/03 06:27:25;;;;;;;0.40;0.30;;;3.70;99.90;;;;;;5073394;28;21007;-86
2023/04/03 06:29:52;;;;;;;0.40;0.40;;;3.70;99.90;;;;;;5073667;28;20504;-84
2023/04/03 06:32:18;;;;;;;0.40;0.40;;;3.70;99.90;;;;;;5078182;28;20492;-85
2023/04/03 06:34:45;;;;;;;0.50;0.40;;;3.70;99.90;;;;;;5073448;28;20837;-85
2023/04/03 06:37:16;;;;;;;0.40;0.37;;;3.70;99.90;;;;;;5073476;28;20949;-85
2023/04/03 06:39:43;;;;;;;0.40;0.30;;;3.70;99.90;;;;;;5073621;28;20469;-87
2023/04/03 06:42:11;;;;;;;0.30;0.30;;;3.80;99.90;;;;;;5073562;28;20535;-85
2023/04/03 06:44:39;;;;;;;0.30;0.30;;;3.80;99.90;;;;;;5073564;28;20453;-85
2023/04/03 06:47:06;;;;;;;0.40;0.40;;;3.80;99.90;;;;;;5073113;28;20485;-85
2023/04/03 06:49:33;;;;;;;4.50;0.90;;;3.90;99.90;;;;;;5073207;28;20984;-85
2023/04/03 06:52:00;;;;;;;0.40;0.33;;;4.10;99.90;;;;;;5073369;28;20810;-85
2023/04/03 06:54:26;;;;;;;0.30;0.30;;;4.30;99.90;;;;;;5073483;28;20460;-84
2023/04/03 06:56:53;;;;;;;0.40;0.40;;;4.30;99.90;;;;;;5073299;28;20434;-85
2023/04/03 06:59:21;;;;;;;1.77;0.90;;;4.40;99.90;;;;;;5073336;28;20457;-85
2023/04/03 07:01:48;;;;;;;0.50;0.50;;;4.50;99.90;;;;;;5073405;28;20488;-85
2023/04/03 07:04:15;;;;;;;0.40;0.33;;;4.70;99.90;;;;;;5073374;28;20441;-85
2023/04/03 07:06:42;;;;;;;0.40;0.33;;;4.60;99.90;;;;;;5073230;28;20446;-85
2023/04/03 07:09:09;;;;;;;0.40;0.30;;;4.70;99.90;;;;;;5072799;28;20984;-85
2023/04/03 07:11:36;;;;;;;0.40;0.30;;;4.80;99.90;;;;;;5073052;28;20945;-85
2023/04/03 07:14:03;;;;;;;1.50;0.80;;;4.80;99.90;;;;;;5073318;28;20437;-85
2023/04/03 07:16:31;;;;;;;0.47;0.47;;;4.90;99.90;;;;;;5073260;28;20445;-85
2023/04/03 07:18:58;;;;;;;0.83;0.83;;;4.90;99.90;;;;;;5073157;28;20533;-85
2023/04/03 07:21:25;;;;;;;0.60;0.60;;;5.00;99.90;;;;;;5073133;28;20492;-85
2023/04/03 07:23:52;;;;;;;1.83;0.93;;;5.00;99.90;;;;;;5073055;28;20515;-85
2023/04/03 07:26:20;;;;;;;0.70;0.63;;;4.90;99.90;;;;;;5073144;28;20449;-85
2023/04/03 07:28:48;;;;;;;0.87;0.40;;;4.90;99.90;;;;;;5074079;28;20449;-85
2023/04/03 07:31:16;;;;;;;1.37;0.77;;;5.00;99.90;;;;;;5076694;28;20894;-85
2023/04/03 07:33:45;;;;;;;0.30;0.30;;;5.20;99.90;;;;;;5076598;28;20441;-84
2023/04/03 07:36:16;;;;;;;0.80;0.80;;;5.40;99.90;;;;;;5076685;28;20461;-85
2023/04/03 07:38:46;;;;;;;0.80;0.80;;;5.50;99.90;;;;;;5076742;28;20426;-84
2023/04/03 07:41:17;;;;;;;0.40;0.40;;;5.40;99.90;;;;;;5076640;28;20484;-85
2023/04/03 07:43:44;;;;;;;0.70;0.70;;;5.40;99.90;;;;;;5076776;28;20805;-86
2023/04/03 07:46:12;;;;;;;0.90;0.47;;;5.50;99.90;;;;;;5076272;28;20520;-86
2023/04/03 07:48:38;;;;;;;0.43;0.43;;;5.70;99.90;;;;;;5076593;28;20502;-86
2023/04/03 07:51:06;;;;;;;0.30;0.30;;;5.70;99.90;;;;;;5076572;28;20442;-86
2023/04/03 07:53:33;;;;;;;0.60;0.60;;;5.80;99.90;;;;;;5076374;28;20437;-85
2023/04/03 07:56:02;;;;;;;0.30;0.30;;;5.90;99.90;;;;;;5076738;28;20438;-86
2023/04/03 07:58:29;;;;;;;0.30;0.30;;;6.10;99.90;;;;;;5076226;28;20951;-86
2023/04/03 08:00:56;;;;;;;3.13;0.60;;;6.20;99.90;;;;;;5076272;28;20629;-85
2023/04/03 08:03:23;;;;;;;1.10;0.80;;;6.30;99.90;;;;;;5076400;28;20499;-86
2023/04/03 08:05:50;;;;;;;0.47;0.47;;;6.30;99.90;;;;;;5078584;28;20445;-86
2023/04/03 08:08:21;;;;;;;0.50;0.50;;;6.50;99.90;;;;;;5076343;28;20441;-85
2023/04/03 08:10:50;;;;;;;0.70;0.60;;;6.50;99.90;;;;;;5076252;28;20469;-86
2023/04/03 08:13:17;;;;;;;0.40;0.40;;;6.60;99.90;;;;;;5075875;28;20473;-86
2023/04/03 08:15:44;;;;;;;0.40;0.40;;;6.50;99.90;;;;;;5076273;28;20437;-86
2023/04/03 08:18:11;;;;;;;0.50;0.50;;;6.40;99.90;;;;;;5075898;28;20488;-85
2023/04/03 08:20:39;;;;;;;0.40;0.30;;;6.40;99.90;;;;;;5075971;28;20552;-85
2023/04/03 08:23:06;;;;;;;0.40;0.33;;;6.20;99.90;;;;;;5075969;28;20427;-85
2023/04/03 08:25:34;;;;;;;1.00;0.60;;;5.90;99.90;;;;;;5075679;28;20445;-85
2023/04/03 08:28:01;;;;;;;1.13;0.50;;;5.80;99.90;;;;;;5075510;28;20452;-85
2023/04/03 08:30:28;;;;;;;0.60;0.47;;;5.60;99.90;;;;;;5075711;28;20465;-85
2023/04/03 08:32:55;;;;;;;1.03;1.03;;;5.60;99.90;;;;;;5075518;28;20449;-85
2023/04/03 08:35:22;;;;;;;1.87;0.40;;;5.70;99.90;;;;;;5075739;28;20444;-85
2023/04/03 08:37:49;;;;;;;0.40;0.40;;;5.90;99.90;;;;;;5075764;28;20430;-85
2023/04/03 08:40:17;;;;;;;0.40;0.33;;;6.20;99.90;;;;;;5075176;28;20841;-85
2023/04/03 08:42:55;;;;;;;1.60;0.83;;;6.60;99.90;;;;;;5075649;28;20488;-85
2023/04/03 08:45:31;;;;;;;0.43;0.37;;;6.70;99.90;;;;;;5075348;28;20425;-85
2023/04/03 08:48:05;;;;;;;0.77;0.37;;;7.10;99.90;;;;;;5075674;28;20448;-85
2023/04/03 08:50:36;;;;;;;0.40;0.40;;;7.60;99.90;;;;;;5075100;28;20969;-85
2023/04/03 08:53:06;;;;;;;0.57;0.57;;;7.60;99.90;;;;;;5075451;28;20441;-86
2023/04/03 08:55:35;;;;;;;0.70;0.50;;;7.50;99.90;;;;;;5075031;28;20938;-85
2023/04/03 08:58:05;;;;;;;0.40;0.40;;;7.50;99.90;;;;;;5075117;28;20445;-86
2023/04/03 09:00:38;;;;;;;1.00;0.53;;;7.50;99.90;;;;;;5075319;28;20931;-86
2023/04/03 09:03:05;;;;;;;0.53;0.53;;;7.50;99.90;;;;;;5080911;28;20474;-85
2023/04/03 09:05:42;;;;;;;1.83;1.00;;;7.60;99.90;;;;;;5075363;28;20450;-86
2023/04/03 09:08:19;;;;;;;0.50;0.50;;;7.80;99.90;;;;;;5075221;28;20528;-86
2023/04/03 09:10:46;;;;;;;0.60;0.50;;;7.80;99.90;;;;;;5074944;28;20519;-86
2023/04/03 09:13:25;;;;;;;3.20;0.70;;;7.90;99.90;;;;;;5074984;28;20455;-85
2023/04/03 09:15:53;;;;;;;2.00;0.70;;;7.50;99.90;;;;;;5075014;28;20410;-85
2023/04/03 09:18:23;;;;;;;0.40;0.40;;;7.20;99.90;;;;;;5075210;28;20520;-85
2023/04/03 09:20:58;;;;;;;0.70;0.50;;;7.20;99.90;;;;;;5074944;28;20523;-85
2023/04/03 09:23:31;;;;;;;0.50;0.50;;;7.20;99.90;;;;;;5074761;28;20429;-85
2023/04/03 09:26:04;;;;;;;0.40;0.40;;;7.20;99.90;;;;;;5074434;28;20969;-85
2023/04/03 09:28:36;;;;;;;0.30;0.30;;;7.10;99.90;;;;;;5074702;28;20433;-85
2023/04/03 09:31:06;;;;;;;0.80;0.43;;;7.10;99.90;;;;;;5074569;28;20465;-85
2023/04/03 09:33:35;;;;;;;0.70;0.63;;;6.70;99.90;;;;;;5074590;28;20525;-85
2023/04/03 09:36:01;;;;;;;0.30;0.30;;;6.50;99.90;;;;;;5074618;28;20430;-86
2023/04/03 09:38:28;;;;;;;0.60;0.60;;;6.20;99.90;;;;;;5074339;28;20943;-85
2023/04/03 09:41:06;;;;;;;0.50;0.33;;;6.00;99.90;;;;;;5074439;28;20470;-85
2023/04/03 09:43:35;;;;;;;0.60;0.50;;;5.90;99.90;;;;;;5074461;28;20776;-85
2023/04/03 09:46:26;;;;;;;1.27;0.90;;;5.80;99.90;;;;;;5074108;28;20513;-86
2023/04/03 09:48:56;;;;;;;0.40;0.40;;;5.90;99.90;;;;;;5074176;28;20440;-86
2023/04/03 09:51:27;;;;;;;0.50;0.50;;;5.90;99.90;;;;;;5073780;28;20449;-85
2023/04/03 09:53:54;;;;;;;0.50;0.50;;;5.80;99.90;;;;;;5074434;28;20513;-85
2023/04/03 09:56:25;;;;;;;0.47;0.47;;;5.60;99.90;;;;;;5074366;28;20481;-85
2023/04/03 09:59:14;;;;;;;0.40;0.40;;;5.60;99.90;;;;;;5075175;28;20826;-86
2023/04/03 10:01:44;;;;;;;0.30;0.30;;;5.50;99.90;;;;;;5074032;28;20469;-86
2023/04/03 10:04:13;;;;;;;0.43;0.43;;;5.50;99.90;;;;;;5074288;28;20433;-85
2023/04/03 10:06:43;;;;;;;0.40;0.40;;;5.40;99.90;;;;;;5074160;28;20426;-85
2023/04/03 10:09:20;;;;;;;0.57;0.50;;;5.50;99.90;;;;;;5074533;28;20527;-85
2023/04/03 10:12:06;;;;;;;0.60;0.47;;;5.60;99.90;;;;;;5074079;28;20850;-86
2023/04/03 10:14:36;;;;;;;0.40;0.40;;;5.60;99.90;;;;;;5073902;28;20905;-86
2023/04/03 10:17:16;;;;;;;0.40;0.40;;;5.60;99.90;;;;;;5073562;28;20426;-85
2023/04/03 10:19:48;;;;;;;1.03;0.40;;;5.60;99.90;;;;;;5073639;28;20448;-85
2023/04/03 10:22:23;;;;;;;0.40;0.40;;;5.80;99.90;;;;;;5073905;28;20556;-86
2023/04/03 10:25:05;;;;;;;0.50;0.30;;;6.00;99.90;;;;;;5074006;28;20431;-86
2023/04/03 10:27:41;;;;;;;0.50;0.50;;;6.30;99.90;;;;;;5074165;28;20434;-86
2023/04/03 10:30:23;;;;;;;0.77;0.53;;;6.50;99.90;;;;;;5073891;28;20988;-86
2023/04/03 10:33:02;;;;;;;0.40;0.30;;;6.80;99.90;;;;;;5075731;28;20935;-86
2023/04/03 10:35:40;;;;;;;0.50;0.50;;;7.00;99.90;;;;;;5074615;28;20461;-86
2023/04/03 10:38:16;;;;;;;0.53;0.53;;;7.20;99.90;;;;;;5077294;28;20433;-85
2023/04/03 10:40:51;;;;;;;0.60;0.40;;;7.90;99.90;;;;;;5076336;28;20473;-85
2023/04/03 10:43:26;;;;;;;0.90;0.47;;;7.80;99.90;;;;;;5077323;28;20469;-86
2023/04/03 10:46:01;;;;;;;1.23;0.40;;;7.50;99.90;;;;;;5079834;28;20473;-84
2023/04/03 10:48:41;;;;;;;1.13;0.87;;;7.30;99.90;;;;;;5077567;28;20426;-86
2023/04/03 10:51:17;;;;;;;0.50;0.50;;;6.90;99.90;;;;;;5079943;28;20432;-85
2023/04/03 10:53:54;;;;;;;0.80;0.60;;;6.70;99.90;;;;;;5079485;28;20429;-85
2023/04/03 10:56:31;;;;;;;2.30;0.57;;;6.70;99.90;;;;;;5078971;28;20517;-86
2023/04/03 10:59:02;;;;;;;0.50;0.40;;;6.70;99.90;;;;;;5079810;28;20434;-86
2023/04/03 11:01:34;;;;;;;6.23;0.67;;;7.00;99.90;;;;;;5078301;28;20438;-85
2023/04/03 11:04:04;;;;;;;0.50;0.43;;;7.20;99.90;;;;;;5080998;28;20439;-85
2023/04/03 11:06:37;;;;;;;0.50;0.50;;;7.10;99.90;;;;;;5082255;28;20417;-85
2023/04/03 11:09:12;;;;;;;0.57;0.57;;;6.90;99.90;;;;;;5082899;28;21037;-85
2023/04/03 11:11:40;;;;;;;0.50;0.33;;;6.70;99.90;;;;;;5081801;28;20812;-85
2023/04/03 11:14:15;;;;;;;0.70;0.40;;;6.60;99.90;;;;;;5082916;28;20454;-85
2023/04/03 11:16:47;;;;;;;1.90;1.33;;;6.60;99.90;;;;;;5083304;28;20433;-85
2023/04/03 11:19:21;;;;;;;2.50;0.40;;;6.70;99.90;;;;;;5083354;28;20518;-86
2023/04/03 11:21:56;;;;;;;0.40;0.40;;;6.80;99.90;;;;;;5082953;28;20480;-85
2023/04/03 11:24:26;;;;;;;1.53;0.83;;;6.90;99.90;;;;;;5082528;28;20433;-85
2023/04/03 11:26:55;;;;;;;0.40;0.30;;;6.80;99.90;;;;;;5082737;28;20467;-85
2023/04/03 11:29:26;;;;;;;0.30;0.30;;;6.70;99.90;;;;;;5080434;28;20533;-85
2023/04/03 11:32:13;;;;;;;0.30;0.30;;;6.60;99.90;;;;;;5084017;28;20437;-85
2023/04/03 11:34:43;;;;;;;4.10;0.50;;;6.40;99.90;;;;;;5081888;28;20847;-85
2023/04/03 11:37:16;;;;;;;0.70;0.60;;;6.40;99.90;;;;;;5082152;28;20450;-85
2023/04/03 11:39:51;;;;;;;1.17;0.60;;;6.30;99.90;;;;;;5080623;28;20465;-85
2023/04/03 11:42:27;;;;;;;0.40;0.40;;;6.20;99.90;;;;;;5081066;28;20994;-85
2023/04/03 11:45:25;;;;;;;0.50;0.50;;;5.90;99.90;;;;;;5081539;28;20437;-86
2023/04/03 11:47:54;;;;;;;1.07;1.07;;;5.80;99.90;;;;;;5082524;28;20929;-86
2023/04/03 11:50:43;;;;;;;0.60;0.43;;;5.80;99.90;;;;;;5083049;28;20480;-86
2023/04/03 11:53:30;;;;;;;0.40;0.40;;;5.90;99.90;;;;;;5081024;28;20461;-86
2023/04/03 11:56:00;;;;;;;0.40;0.30;;;5.90;99.90;;;;;;5080015;28;20451;-86
2023/04/03 11:58:28;;;;;;;0.40;0.40;;;6.00;99.90;;;;;;5084132;28;20503;-85
2023/04/03 12:01:31;;;;;;;1.13;0.67;;;6.00;99.90;;;;;;5077998;28;20473;-85
2023/04/03 12:04:13;;;;;;;0.60;0.40;;;6.10;99.90;;;;;;5078095;28;20999;-85
2023/04/03 12:07:04;;;;;;;0.30;0.30;;;6.20;99.90;;;;;;5077623;28;20491;-85
2023/04/03 12:09:55;;;;;;;0.50;0.40;;;6.10;99.90;;;;;;5077018;28;20465;-76
2023/04/03 12:12:34;;;;;;;0.40;0.40;;;5.90;99.90;;;;;;5075751;28;20422;-76
2023/04/03 12:15:21;;;;;;;0.40;0.40;;;6.00;99.90;;;;;;5075007;28;20912;-76
2023/04/03 12:17:48;;;;;;;0.40;0.33;;;6.00;99.90;;;;;;5075948;28;20814;-76
2023/04/03 12:20:52;;;;;;;0.30;0.30;;;5.90;99.90;;;;;;5075871;28;20468;-76
2023/04/03 12:23:30;;;;;;;0.73;0.70;;;5.90;99.90;;;;;;5076124;28;20488;-85
2023/04/03 12:26:04;;;;;;;0.30;0.30;;;6.00;99.90;;;;;;5077115;28;20433;-85
2023/04/03 12:28:38;;;;;;;0.70;0.57;;;6.20;99.90;;;;;;5076780;28;20432;-85
2023/04/03 12:31:06;;;;;;;0.50;0.47;;;6.30;99.90;;;;;;5077866;28;20465;-85
2023/04/03 12:33:45;;;;;;;0.40;0.30;;;6.50;99.90;;;;;;5077012;28;20493;-84
2023/04/03 12:36:19;;;;;;;3.53;0.60;;;6.60;99.90;;;;;;5077431;28;20434;-84
2023/04/03 12:39:18;;;;;;;0.50;0.40;;;6.60;99.90;;;;;;5076593;28;20430;-85
2023/04/03 12:41:53;;;;;;;0.40;0.40;;;6.50;99.90;;;;;;5076608;28;20442;-85
2023/04/03 12:44:44;;;;;;;0.43;0.43;;;6.20;99.90;;;;;;5076787;28;20480;-84
2023/04/03 12:47:24;;;;;;;4.80;0.93;;;6.10;99.90;;;;;;5076875;28;20473;-86
2023/04/03 12:49:52;;;;;;;0.40;0.30;;;6.00;99.90;;;;;;5076760;28;20465;-85
2023/04/03 12:52:29;;;;;;;0.60;0.60;;;5.80;99.90;;;;;;5075709;28;20449;-85
2023/04/03 12:54:58;;;;;;;1.37;0.67;;;5.80;99.90;;;;;;5076531;28;20970;-85
2023/04/03 12:57:27;;;;;;;0.40;0.40;;;5.80;99.90;;;;;;5075857;28;20929;-85
2023/04/03 12:59:54;;;;;;;0.40;0.30;;;5.80;99.90;;;;;;5075730;28;20458;-85
2023/04/03 13:02:24;;;;;;;0.73;0.73;;;5.80;99.90;;;;;;5076490;28;20437;-85
2023/04/03 13:04:51;;;;;;;0.40;0.30;;;5.90;99.90;;;;;;5075737;28;20449;-85
2023/04/03 13:07:25;;;;;;;0.50;0.40;;;6.00;99.90;;;;;;5077262;28;20453;-85
2023/04/03 13:10:02;;;;;;;0.50;0.47;;;6.20;99.90;;;;;;5076596;28;20473;-85
2023/04/03 13:12:29;;;;;;;0.30;0.30;;;6.50;99.90;;;;;;5076924;28;20433;-84